sensor_id;sensor_type;location;lat;lon;timestamp;P1;durP1;ratioP1;P2;durP2;ratioP2
17330;SDS011;8783;52.448;4.638;2023-07-13T00:02:14;16.10;;;3.78;;
17330;SDS011;8783;52.448;4.638;2023-07-13T00:04:40;20.80;;;3.97;;
17330;SDS011;8783;52.448;4.638;2023-07-13T00:07:06;18.38;;;4.35;;
17330;SDS011;8783;52.448;4.638;2023-07-13T00:09:33;21.20;;;3.90;;
17330;SDS011;8783;52.448;4.638;2023-07-13T00:11:59;21.27;;;3.90;;
17330;SDS011;8783;52.448;4.638;2023-07-13T00:14:26;19.05;;;3.67;;
17330;SDS011;8783;52.448;4.638;2023-07-13T00:16:53;27.88;;;4.82;;
17330;SDS011;8783;52.448;4.638;2023-07-13T00:19:18;21.15;;;3.80;;
17330;SDS011;8783;52.448;4.638;2023-07-13T00:21:44;17.08;;;3.78;;
17330;SDS011;8783;52.448;4.638;2023-07-13T00:24:11;15.85;;;3.58;;
17330;SDS011;8783;52.448;4.638;2023-07-13T00:26:38;14.05;;;3.38;;
17330;SDS011;8783;52.448;4.638;2023-07-13T00:29:04;16.30;;;3.55;;
17330;SDS011;8783;52.448;4.638;2023-07-13T00:31:34;14.20;;;3.00;;
17330;SDS011;8783;52.448;4.638;2023-07-13T00:34:01;13.68;;;3.10;;
17330;SDS011;8783;52.448;4.638;2023-07-13T00:36:27;14.10;;;2.80;;
17330;SDS011;8783;52.448;4.638;2023-07-13T00:38:52;13.00;;;2.80;;
17330;SDS011;8783;52.448;4.638;2023-07-13T00:41:18;8.80;;;2.30;;
17330;SDS011;8783;52.448;4.638;2023-07-13T00:43:44;9.82;;;1.90;;
17330;SDS011;8783;52.448;4.638;2023-07-13T00:48:42;9.20;;;2.17;;
17330;SDS011;8783;52.448;4.638;2023-07-13T00:51:12;10.10;;;2.00;;
17330;SDS011;8783;52.448;4.638;2023-07-13T00:53:39;6.95;;;1.95;;
17330;SDS011;8783;52.448;4.638;2023-07-13T00:56:05;8.52;;;1.85;;
17330;SDS011;8783;52.448;4.638;2023-07-13T00:58:31;8.55;;;1.60;;
17330;SDS011;8783;52.448;4.638;2023-07-13T01:00:58;5.53;;;1.80;;
17330;SDS011;8783;52.448;4.638;2023-07-13T01:03:24;6.10;;;1.35;;
17330;SDS011;8783;52.448;4.638;2023-07-13T01:05:49;5.35;;;1.35;;
17330;SDS011;8783;52.448;4.638;2023-07-13T01:08:16;8.65;;;1.50;;
17330;SDS011;8783;52.448;4.638;2023-07-13T01:10:55;10.82;;;2.00;;
17330;SDS011;8783;52.448;4.638;2023-07-13T01:13:22;5.60;;;1.55;;
17330;SDS011;8783;52.448;4.638;2023-07-13T01:15:49;6.43;;;1.60;;
17330;SDS011;8783;52.448;4.638;2023-07-13T01:18:23;8.73;;;1.80;;
17330;SDS011;8783;52.448;4.638;2023-07-13T01:23:21;6.70;;;1.85;;
17330;SDS011;8783;52.448;4.638;2023-07-13T01:25:47;8.13;;;1.30;;
17330;SDS011;8783;52.448;4.638;2023-07-13T01:28:13;8.63;;;2.10;;
17330;SDS011;8783;52.448;4.638;2023-07-13T01:30:39;9.23;;;1.75;;
17330;SDS011;8783;52.448;4.638;2023-07-13T01:33:06;5.03;;;1.50;;
17330;SDS011;8783;52.448;4.638;2023-07-13T01:35:33;6.95;;;1.73;;
17330;SDS011;8783;52.448;4.638;2023-07-13T01:37:59;9.38;;;2.08;;
17330;SDS011;8783;52.448;4.638;2023-07-13T01:40:26;5.47;;;1.60;;
17330;SDS011;8783;52.448;4.638;2023-07-13T01:42:52;7.78;;;2.00;;
17330;SDS011;8783;52.448;4.638;2023-07-13T01:45:18;6.13;;;1.50;;
17330;SDS011;8783;52.448;4.638;2023-07-13T01:47:44;7.88;;;1.70;;
17330;SDS011;8783;52.448;4.638;2023-07-13T01:50:10;10.82;;;1.35;;
17330;SDS011;8783;52.448;4.638;2023-07-13T01:52:35;5.53;;;1.50;;
17330;SDS011;8783;52.448;4.638;2023-07-13T01:55:01;6.93;;;1.83;;
17330;SDS011;8783;52.448;4.638;2023-07-13T01:57:27;6.55;;;1.25;;
17330;SDS011;8783;52.448;4.638;2023-07-13T01:59:53;4.97;;;1.58;;
17330;SDS011;8783;52.448;4.638;2023-07-13T02:02:19;10.40;;;1.63;;
17330;SDS011;8783;52.448;4.638;2023-07-13T02:04:45;4.57;;;1.85;;
17330;SDS011;8783;52.448;4.638;2023-07-13T02:07:11;8.90;;;1.48;;
17330;SDS011;8783;52.448;4.638;2023-07-13T02:09:36;6.22;;;1.80;;
17330;SDS011;8783;52.448;4.638;2023-07-13T02:12:02;7.90;;;1.90;;
17330;SDS011;8783;52.448;4.638;2023-07-13T02:14:28;6.15;;;1.90;;
17330;SDS011;8783;52.448;4.638;2023-07-13T02:16:54;5.97;;;1.55;;
17330;SDS011;8783;52.448;4.638;2023-07-13T02:19:19;6.78;;;1.73;;
17330;SDS011;8783;52.448;4.638;2023-07-13T02:21:45;7.22;;;1.65;;
17330;SDS011;8783;52.448;4.638;2023-07-13T02:24:11;9.93;;;1.80;;
17330;SDS011;8783;52.448;4.638;2023-07-13T02:26:42;8.95;;;1.65;;
17330;SDS011;8783;52.448;4.638;2023-07-13T02:29:09;6.85;;;1.70;;
17330;SDS011;8783;52.448;4.638;2023-07-13T02:31:35;4.20;;;1.50;;
17330;SDS011;8783;52.448;4.638;2023-07-13T02:34:01;5.43;;;1.48;;
17330;SDS011;8783;52.448;4.638;2023-07-13T02:36:27;5.97;;;1.52;;
17330;SDS011;8783;52.448;4.638;2023-07-13T02:38:53;4.88;;;1.60;;
17330;SDS011;8783;52.448;4.638;2023-07-13T02:41:19;6.32;;;1.83;;
17330;SDS011;8783;52.448;4.638;2023-07-13T02:43:45;7.60;;;1.60;;
17330;SDS011;8783;52.448;4.638;2023-07-13T02:46:11;6.95;;;1.70;;
17330;SDS011;8783;52.448;4.638;2023-07-13T02:48:37;7.00;;;2.05;;
17330;SDS011;8783;52.448;4.638;2023-07-13T02:51:04;7.30;;;1.73;;
17330;SDS011;8783;52.448;4.638;2023-07-13T02:53:30;5.35;;;1.77;;
17330;SDS011;8783;52.448;4.638;2023-07-13T02:55:56;7.93;;;1.98;;
17330;SDS011;8783;52.448;4.638;2023-07-13T02:58:22;11.10;;;1.92;;
17330;SDS011;8783;52.448;4.638;2023-07-13T03:00:48;11.40;;;2.28;;
17330;SDS011;8783;52.448;4.638;2023-07-13T03:03:15;8.88;;;1.90;;
17330;SDS011;8783;52.448;4.638;2023-07-13T03:05:42;8.93;;;1.88;;
17330;SDS011;8783;52.448;4.638;2023-07-13T03:08:10;11.15;;;1.80;;
17330;SDS011;8783;52.448;4.638;2023-07-13T03:10:36;10.45;;;2.00;;
17330;SDS011;8783;52.448;4.638;2023-07-13T03:13:04;12.35;;;2.60;;
17330;SDS011;8783;52.448;4.638;2023-07-13T03:15:30;9.30;;;2.03;;
17330;SDS011;8783;52.448;4.638;2023-07-13T03:17:56;7.95;;;1.92;;
17330;SDS011;8783;52.448;4.638;2023-07-13T03:20:21;5.70;;;2.05;;
17330;SDS011;8783;52.448;4.638;2023-07-13T03:22:47;9.18;;;2.17;;
17330;SDS011;8783;52.448;4.638;2023-07-13T03:25:13;7.88;;;1.92;;
17330;SDS011;8783;52.448;4.638;2023-07-13T03:27:39;7.50;;;2.05;;
17330;SDS011;8783;52.448;4.638;2023-07-13T03:30:05;8.25;;;2.00;;
17330;SDS011;8783;52.448;4.638;2023-07-13T03:32:31;8.05;;;2.30;;
17330;SDS011;8783;52.448;4.638;2023-07-13T03:34:57;10.15;;;2.00;;
17330;SDS011;8783;52.448;4.638;2023-07-13T03:37:23;8.38;;;2.35;;
17330;SDS011;8783;52.448;4.638;2023-07-13T03:39:49;6.00;;;1.80;;
17330;SDS011;8783;52.448;4.638;2023-07-13T03:42:15;6.53;;;1.80;;
17330;SDS011;8783;52.448;4.638;2023-07-13T03:44:41;8.38;;;2.33;;
17330;SDS011;8783;52.448;4.638;2023-07-13T03:47:10;10.77;;;2.58;;
17330;SDS011;8783;52.448;4.638;2023-07-13T03:49:36;10.27;;;2.50;;
17330;SDS011;8783;52.448;4.638;2023-07-13T03:52:03;10.15;;;2.00;;
17330;SDS011;8783;52.448;4.638;2023-07-13T03:54:29;8.35;;;2.00;;
17330;SDS011;8783;52.448;4.638;2023-07-13T03:56:55;9.63;;;2.08;;
17330;SDS011;8783;52.448;4.638;2023-07-13T03:59:21;10.50;;;2.13;;
17330;SDS011;8783;52.448;4.638;2023-07-13T04:01:47;8.40;;;2.30;;
17330;SDS011;8783;52.448;4.638;2023-07-13T04:04:13;10.95;;;2.38;;
17330;SDS011;8783;52.448;4.638;2023-07-13T04:06:38;10.35;;;2.72;;
17330;SDS011;8783;52.448;4.638;2023-07-13T04:09:04;11.10;;;2.65;;
17330;SDS011;8783;52.448;4.638;2023-07-13T04:11:34;10.13;;;2.38;;
17330;SDS011;8783;52.448;4.638;2023-07-13T04:14:01;8.18;;;2.05;;
17330;SDS011;8783;52.448;4.638;2023-07-13T04:16:28;9.02;;;2.50;;
17330;SDS011;8783;52.448;4.638;2023-07-13T04:18:54;11.77;;;2.38;;
17330;SDS011;8783;52.448;4.638;2023-07-13T04:21:24;9.23;;;2.17;;
17330;SDS011;8783;52.448;4.638;2023-07-13T04:23:51;7.78;;;2.30;;
17330;SDS011;8783;52.448;4.638;2023-07-13T04:26:17;8.57;;;2.13;;
17330;SDS011;8783;52.448;4.638;2023-07-13T04:28:44;7.45;;;2.17;;
17330;SDS011;8783;52.448;4.638;2023-07-13T04:31:09;9.40;;;2.22;;
17330;SDS011;8783;52.448;4.638;2023-07-13T04:33:35;9.13;;;2.85;;
17330;SDS011;8783;52.448;4.638;2023-07-13T04:36:01;10.88;;;2.35;;
17330;SDS011;8783;52.448;4.638;2023-07-13T04:38:28;6.22;;;1.90;;
17330;SDS011;8783;52.448;4.638;2023-07-13T04:40:56;10.50;;;2.13;;
17330;SDS011;8783;52.448;4.638;2023-07-13T04:43:23;8.23;;;2.25;;
17330;SDS011;8783;52.448;4.638;2023-07-13T04:45:50;8.00;;;2.38;;
17330;SDS011;8783;52.448;4.638;2023-07-13T04:48:17;10.30;;;2.65;;
17330;SDS011;8783;52.448;4.638;2023-07-13T04:50:43;10.98;;;2.55;;
17330;SDS011;8783;52.448;4.638;2023-07-13T04:53:08;8.60;;;2.30;;
17330;SDS011;8783;52.448;4.638;2023-07-13T04:55:35;11.38;;;2.75;;
17330;SDS011;8783;52.448;4.638;2023-07-13T04:58:01;8.77;;;2.25;;
17330;SDS011;8783;52.448;4.638;2023-07-13T05:00:28;7.43;;;2.20;;
17330;SDS011;8783;52.448;4.638;2023-07-13T05:02:55;10.02;;;2.60;;
17330;SDS011;8783;52.448;4.638;2023-07-13T05:05:22;9.32;;;2.20;;
17330;SDS011;8783;52.448;4.638;2023-07-13T05:07:49;6.70;;;2.00;;
17330;SDS011;8783;52.448;4.638;2023-07-13T05:10:14;6.18;;;1.83;;
17330;SDS011;8783;52.448;4.638;2023-07-13T05:12:41;11.45;;;2.60;;
17330;SDS011;8783;52.448;4.638;2023-07-13T05:15:06;10.15;;;2.28;;
17330;SDS011;8783;52.448;4.638;2023-07-13T05:17:32;9.27;;;2.35;;
17330;SDS011;8783;52.448;4.638;2023-07-13T05:19:58;9.70;;;2.00;;
17330;SDS011;8783;52.448;4.638;2023-07-13T05:22:24;5.90;;;1.98;;
17330;SDS011;8783;52.448;4.638;2023-07-13T05:24:50;7.45;;;2.22;;
17330;SDS011;8783;52.448;4.638;2023-07-13T05:27:16;11.65;;;2.45;;
17330;SDS011;8783;52.448;4.638;2023-07-13T05:29:41;8.15;;;2.30;;
17330;SDS011;8783;52.448;4.638;2023-07-13T05:32:07;8.50;;;2.28;;
17330;SDS011;8783;52.448;4.638;2023-07-13T05:34:33;9.95;;;2.45;;
17330;SDS011;8783;52.448;4.638;2023-07-13T05:36:59;8.43;;;2.33;;
17330;SDS011;8783;52.448;4.638;2023-07-13T05:39:24;8.25;;;2.00;;
17330;SDS011;8783;52.448;4.638;2023-07-13T05:41:51;7.90;;;2.33;;
17330;SDS011;8783;52.448;4.638;2023-07-13T05:44:17;7.13;;;2.30;;
17330;SDS011;8783;52.448;4.638;2023-07-13T05:46:43;8.65;;;2.22;;
17330;SDS011;8783;52.448;4.638;2023-07-13T05:49:09;10.13;;;2.50;;
17330;SDS011;8783;52.448;4.638;2023-07-13T05:51:35;9.13;;;1.98;;
17330;SDS011;8783;52.448;4.638;2023-07-13T05:54:00;9.95;;;2.58;;
17330;SDS011;8783;52.448;4.638;2023-07-13T05:56:26;13.27;;;2.45;;
17330;SDS011;8783;52.448;4.638;2023-07-13T05:58:52;7.03;;;1.58;;
17330;SDS011;8783;52.448;4.638;2023-07-13T06:01:18;7.28;;;2.00;;
17330;SDS011;8783;52.448;4.638;2023-07-13T06:03:45;8.57;;;2.45;;
17330;SDS011;8783;52.448;4.638;2023-07-13T06:06:12;13.65;;;2.35;;
17330;SDS011;8783;52.448;4.638;2023-07-13T06:08:38;10.18;;;2.47;;
17330;SDS011;8783;52.448;4.638;2023-07-13T06:13:32;5.60;;;1.98;;
17330;SDS011;8783;52.448;4.638;2023-07-13T06:15:58;8.15;;;2.50;;
17330;SDS011;8783;52.448;4.638;2023-07-13T06:18:24;7.10;;;2.40;;
17330;SDS011;8783;52.448;4.638;2023-07-13T06:20:50;9.98;;;2.38;;
17330;SDS011;8783;52.448;4.638;2023-07-13T06:23:16;6.03;;;2.13;;
17330;SDS011;8783;52.448;4.638;2023-07-13T06:25:42;7.60;;;2.20;;
17330;SDS011;8783;52.448;4.638;2023-07-13T06:28:08;7.97;;;2.33;;
17330;SDS011;8783;52.448;4.638;2023-07-13T06:30:34;10.02;;;2.25;;
17330;SDS011;8783;52.448;4.638;2023-07-13T06:33:00;11.75;;;2.70;;
17330;SDS011;8783;52.448;4.638;2023-07-13T06:35:25;6.55;;;2.25;;
17330;SDS011;8783;52.448;4.638;2023-07-13T06:37:51;7.15;;;2.08;;
17330;SDS011;8783;52.448;4.638;2023-07-13T06:40:17;7.35;;;2.00;;
17330;SDS011;8783;52.448;4.638;2023-07-13T06:42:42;10.07;;;2.25;;
17330;SDS011;8783;52.448;4.638;2023-07-13T06:45:08;6.78;;;2.08;;
17330;SDS011;8783;52.448;4.638;2023-07-13T06:47:34;8.52;;;2.13;;
17330;SDS011;8783;52.448;4.638;2023-07-13T06:50:00;8.15;;;2.20;;
17330;SDS011;8783;52.448;4.638;2023-07-13T06:52:26;8.40;;;1.73;;
17330;SDS011;8783;52.448;4.638;2023-07-13T06:54:52;7.05;;;2.08;;
17330;SDS011;8783;52.448;4.638;2023-07-13T06:57:17;10.27;;;2.13;;
17330;SDS011;8783;52.448;4.638;2023-07-13T06:59:43;8.95;;;2.40;;
17330;SDS011;8783;52.448;4.638;2023-07-13T07:02:09;7.30;;;1.95;;
17330;SDS011;8783;52.448;4.638;2023-07-13T07:04:36;6.30;;;1.90;;
17330;SDS011;8783;52.448;4.638;2023-07-13T07:07:02;15.20;;;2.25;;
17330;SDS011;8783;52.448;4.638;2023-07-13T07:09:28;9.70;;;2.03;;
17330;SDS011;8783;52.448;4.638;2023-07-13T07:11:55;23.48;;;6.13;;
17330;SDS011;8783;52.448;4.638;2023-07-13T07:14:21;37.95;;;7.43;;
17330;SDS011;8783;52.448;4.638;2023-07-13T07:16:47;33.55;;;6.90;;
17330;SDS011;8783;52.448;4.638;2023-07-13T07:19:12;24.98;;;5.88;;
17330;SDS011;8783;52.448;4.638;2023-07-13T07:21:38;24.20;;;5.28;;
17330;SDS011;8783;52.448;4.638;2023-07-13T07:24:04;20.13;;;5.25;;
17330;SDS011;8783;52.448;4.638;2023-07-13T07:26:30;20.73;;;4.47;;
17330;SDS011;8783;52.448;4.638;2023-07-13T07:28:56;20.35;;;4.13;;
17330;SDS011;8783;52.448;4.638;2023-07-13T07:31:22;17.05;;;4.05;;
17330;SDS011;8783;52.448;4.638;2023-07-13T07:33:47;10.65;;;2.95;;
17330;SDS011;8783;52.448;4.638;2023-07-13T07:36:14;9.18;;;2.67;;
17330;SDS011;8783;52.448;4.638;2023-07-13T07:38:41;11.52;;;2.65;;
17330;SDS011;8783;52.448;4.638;2023-07-13T07:41:07;12.15;;;2.83;;
17330;SDS011;8783;52.448;4.638;2023-07-13T07:43:33;19.83;;;2.90;;
17330;SDS011;8783;52.448;4.638;2023-07-13T07:45:58;10.80;;;2.63;;
17330;SDS011;8783;52.448;4.638;2023-07-13T07:48:25;10.27;;;2.88;;
17330;SDS011;8783;52.448;4.638;2023-07-13T07:50:50;11.20;;;2.90;;
17330;SDS011;8783;52.448;4.638;2023-07-13T07:53:16;8.20;;;2.28;;
17330;SDS011;8783;52.448;4.638;2023-07-13T07:55:42;8.00;;;2.30;;
17330;SDS011;8783;52.448;4.638;2023-07-13T07:58:07;10.05;;;2.42;;
17330;SDS011;8783;52.448;4.638;2023-07-13T08:00:35;10.77;;;2.63;;
17330;SDS011;8783;52.448;4.638;2023-07-13T08:03:01;13.43;;;2.60;;
17330;SDS011;8783;52.448;4.638;2023-07-13T08:05:27;10.13;;;2.22;;
17330;SDS011;8783;52.448;4.638;2023-07-13T08:07:53;13.73;;;2.40;;
17330;SDS011;8783;52.448;4.638;2023-07-13T08:10:19;11.45;;;2.28;;
17330;SDS011;8783;52.448;4.638;2023-07-13T08:12:45;6.97;;;2.05;;
17330;SDS011;8783;52.448;4.638;2023-07-13T08:15:12;13.15;;;2.28;;
17330;SDS011;8783;52.448;4.638;2023-07-13T08:17:39;12.63;;;2.60;;
17330;SDS011;8783;52.448;4.638;2023-07-13T08:20:05;11.80;;;2.00;;
17330;SDS011;8783;52.448;4.638;2023-07-13T08:22:31;10.52;;;2.28;;
17330;SDS011;8783;52.448;4.638;2023-07-13T08:24:58;7.38;;;2.35;;
17330;SDS011;8783;52.448;4.638;2023-07-13T08:27:25;7.60;;;2.30;;
17330;SDS011;8783;52.448;4.638;2023-07-13T08:29:52;8.07;;;2.38;;
17330;SDS011;8783;52.448;4.638;2023-07-13T08:32:19;6.70;;;1.85;;
17330;SDS011;8783;52.448;4.638;2023-07-13T08:34:46;12.20;;;2.22;;
17330;SDS011;8783;52.448;4.638;2023-07-13T08:37:12;11.77;;;2.42;;
17330;SDS011;8783;52.448;4.638;2023-07-13T08:39:38;12.05;;;2.50;;
17330;SDS011;8783;52.448;4.638;2023-07-13T08:42:27;12.10;;;2.70;;
17330;SDS011;8783;52.448;4.638;2023-07-13T08:47:52;8.07;;;2.60;;
17330;SDS011;8783;52.448;4.638;2023-07-13T08:50:23;8.98;;;2.10;;
17330;SDS011;8783;52.448;4.638;2023-07-13T08:52:54;9.70;;;1.95;;
17330;SDS011;8783;52.448;4.638;2023-07-13T08:55:21;12.90;;;2.58;;
17330;SDS011;8783;52.448;4.638;2023-07-13T08:58:00;8.05;;;2.35;;
17330;SDS011;8783;52.448;4.638;2023-07-13T09:06:43;10.35;;;2.47;;
17330;SDS011;8783;52.448;4.638;2023-07-13T09:15:31;7.18;;;2.20;;
17330;SDS011;8783;52.448;4.638;2023-07-13T09:18:11;7.45;;;2.55;;
17330;SDS011;8783;52.448;4.638;2023-07-13T09:21:15;8.50;;;2.00;;
17330;SDS011;8783;52.448;4.638;2023-07-13T09:23:46;8.23;;;2.08;;
17330;SDS011;8783;52.448;4.638;2023-07-13T09:26:19;9.38;;;2.20;;
17330;SDS011;8783;52.448;4.638;2023-07-13T09:28:48;10.45;;;2.35;;
17330;SDS011;8783;52.448;4.638;2023-07-13T09:33:59;7.80;;;2.60;;
17330;SDS011;8783;52.448;4.638;2023-07-13T09:36:29;7.80;;;2.20;;
17330;SDS011;8783;52.448;4.638;2023-07-13T09:44:26;10.20;;;2.45;;
17330;SDS011;8783;52.448;4.638;2023-07-13T09:47:00;7.72;;;2.50;;
17330;SDS011;8783;52.448;4.638;2023-07-13T09:49:28;10.30;;;2.58;;
17330;SDS011;8783;52.448;4.638;2023-07-13T09:51:59;7.10;;;2.33;;
17330;SDS011;8783;52.448;4.638;2023-07-13T09:54:28;8.00;;;2.35;;
17330;SDS011;8783;52.448;4.638;2023-07-13T09:56:57;8.85;;;2.30;;
17330;SDS011;8783;52.448;4.638;2023-07-13T09:59:26;10.63;;;3.00;;
17330;SDS011;8783;52.448;4.638;2023-07-13T10:01:55;8.55;;;2.20;;
17330;SDS011;8783;52.448;4.638;2023-07-13T10:04:26;7.35;;;2.47;;
17330;SDS011;8783;52.448;4.638;2023-07-13T10:07:06;8.27;;;2.17;;
17330;SDS011;8783;52.448;4.638;2023-07-13T10:09:33;11.18;;;2.80;;
17330;SDS011;8783;52.448;4.638;2023-07-13T10:11:58;7.65;;;2.13;;
17330;SDS011;8783;52.448;4.638;2023-07-13T10:14:24;11.00;;;2.33;;
17330;SDS011;8783;52.448;4.638;2023-07-13T10:16:52;11.23;;;2.25;;
17330;SDS011;8783;52.448;4.638;2023-07-13T10:19:25;10.25;;;2.40;;
17330;SDS011;8783;52.448;4.638;2023-07-13T10:21:56;9.73;;;2.30;;
17330;SDS011;8783;52.448;4.638;2023-07-13T10:24:29;13.48;;;2.92;;
17330;SDS011;8783;52.448;4.638;2023-07-13T10:29:39;9.48;;;2.70;;
17330;SDS011;8783;52.448;4.638;2023-07-13T10:32:17;11.25;;;2.90;;
17330;SDS011;8783;52.448;4.638;2023-07-13T10:34:47;9.85;;;2.60;;
17330;SDS011;8783;52.448;4.638;2023-07-13T10:37:16;14.35;;;2.80;;
17330;SDS011;8783;52.448;4.638;2023-07-13T10:39:55;16.33;;;2.60;;
17330;SDS011;8783;52.448;4.638;2023-07-13T10:42:35;10.13;;;2.85;;
17330;SDS011;8783;52.448;4.638;2023-07-13T10:47:40;10.93;;;2.85;;
17330;SDS011;8783;52.448;4.638;2023-07-13T10:50:07;11.30;;;3.05;;
17330;SDS011;8783;52.448;4.638;2023-07-13T10:52:44;12.90;;;2.40;;
17330;SDS011;8783;52.448;4.638;2023-07-13T10:58:01;10.25;;;2.83;;
17330;SDS011;8783;52.448;4.638;2023-07-13T11:00:36;12.00;;;3.05;;
17330;SDS011;8783;52.448;4.638;2023-07-13T11:03:12;8.95;;;2.75;;
17330;SDS011;8783;52.448;4.638;2023-07-13T11:05:41;8.35;;;2.53;;
17330;SDS011;8783;52.448;4.638;2023-07-13T11:08:18;9.65;;;2.60;;
17330;SDS011;8783;52.448;4.638;2023-07-13T11:10:50;9.00;;;3.00;;
17330;SDS011;8783;52.448;4.638;2023-07-13T11:16:13;12.82;;;2.85;;
17330;SDS011;8783;52.448;4.638;2023-07-13T11:18:49;7.93;;;2.53;;
17330;SDS011;8783;52.448;4.638;2023-07-13T11:21:21;11.32;;;2.60;;
17330;SDS011;8783;52.448;4.638;2023-07-13T11:23:52;9.30;;;2.40;;
17330;SDS011;8783;52.448;4.638;2023-07-13T11:27:11;8.20;;;2.47;;
17330;SDS011;8783;52.448;4.638;2023-07-13T11:31:55;14.30;;;2.30;;
17330;SDS011;8783;52.448;4.638;2023-07-13T11:34:37;5.40;;;1.92;;
17330;SDS011;8783;52.448;4.638;2023-07-13T11:37:08;7.97;;;2.50;;
17330;SDS011;8783;52.448;4.638;2023-07-13T11:39:37;8.90;;;2.58;;
17330;SDS011;8783;52.448;4.638;2023-07-13T11:42:08;11.60;;;2.60;;
17330;SDS011;8783;52.448;4.638;2023-07-13T11:44:41;9.50;;;2.35;;
17330;SDS011;8783;52.448;4.638;2023-07-13T11:47:14;10.40;;;2.88;;
17330;SDS011;8783;52.448;4.638;2023-07-13T11:49:47;9.18;;;2.33;;
17330;SDS011;8783;52.448;4.638;2023-07-13T11:52:27;8.93;;;2.10;;
17330;SDS011;8783;52.448;4.638;2023-07-13T11:55:01;9.75;;;2.28;;
17330;SDS011;8783;52.448;4.638;2023-07-13T11:57:36;7.80;;;2.33;;
17330;SDS011;8783;52.448;4.638;2023-07-13T12:00:15;12.13;;;2.42;;
17330;SDS011;8783;52.448;4.638;2023-07-13T12:02:47;10.88;;;2.65;;
17330;SDS011;8783;52.448;4.638;2023-07-13T12:05:15;9.25;;;2.70;;
17330;SDS011;8783;52.448;4.638;2023-07-13T12:07:48;6.50;;;2.22;;
17330;SDS011;8783;52.448;4.638;2023-07-13T12:10:20;8.88;;;2.58;;
17330;SDS011;8783;52.448;4.638;2023-07-13T12:12:56;10.45;;;2.22;;
17330;SDS011;8783;52.448;4.638;2023-07-13T12:15:28;8.82;;;2.60;;
17330;SDS011;8783;52.448;4.638;2023-07-13T12:18:23;11.40;;;2.75;;
17330;SDS011;8783;52.448;4.638;2023-07-13T12:20:58;10.98;;;2.58;;
17330;SDS011;8783;52.448;4.638;2023-07-13T12:25:55;7.85;;;2.42;;
17330;SDS011;8783;52.448;4.638;2023-07-13T12:28:30;5.93;;;2.15;;
17330;SDS011;8783;52.448;4.638;2023-07-13T12:31:02;10.90;;;2.88;;
17330;SDS011;8783;52.448;4.638;2023-07-13T12:33:32;9.27;;;2.88;;
17330;SDS011;8783;52.448;4.638;2023-07-13T12:36:02;7.63;;;2.63;;
17330;SDS011;8783;52.448;4.638;2023-07-13T12:38:30;8.55;;;2.75;;
17330;SDS011;8783;52.448;4.638;2023-07-13T12:40:57;9.07;;;2.70;;
17330;SDS011;8783;52.448;4.638;2023-07-13T12:43:23;9.70;;;2.80;;
17330;SDS011;8783;52.448;4.638;2023-07-13T12:45:58;12.90;;;2.88;;
17330;SDS011;8783;52.448;4.638;2023-07-13T12:48:27;11.02;;;2.67;;
17330;SDS011;8783;52.448;4.638;2023-07-13T12:50:54;9.45;;;2.72;;
17330;SDS011;8783;52.448;4.638;2023-07-13T12:53:23;10.32;;;2.72;;
17330;SDS011;8783;52.448;4.638;2023-07-13T12:55:54;5.53;;;2.45;;
17330;SDS011;8783;52.448;4.638;2023-07-13T12:58:26;11.77;;;3.00;;
17330;SDS011;8783;52.448;4.638;2023-07-13T13:01:03;8.55;;;2.38;;
17330;SDS011;8783;52.448;4.638;2023-07-13T13:06:22;8.00;;;2.60;;
17330;SDS011;8783;52.448;4.638;2023-07-13T13:08:51;7.55;;;2.78;;
17330;SDS011;8783;52.448;4.638;2023-07-13T13:11:18;6.88;;;2.60;;
17330;SDS011;8783;52.448;4.638;2023-07-13T13:13:45;10.15;;;2.55;;
17330;SDS011;8783;52.448;4.638;2023-07-13T13:16:17;9.00;;;2.55;;
17330;SDS011;8783;52.448;4.638;2023-07-13T13:18:57;9.40;;;2.53;;
17330;SDS011;8783;52.448;4.638;2023-07-13T13:21:27;12.63;;;2.92;;
17330;SDS011;8783;52.448;4.638;2023-07-13T13:23:53;8.65;;;2.67;;
17330;SDS011;8783;52.448;4.638;2023-07-13T13:26:19;7.75;;;2.25;;
17330;SDS011;8783;52.448;4.638;2023-07-13T13:28:46;9.23;;;2.47;;
17330;SDS011;8783;52.448;4.638;2023-07-13T13:31:13;7.53;;;2.50;;
17330;SDS011;8783;52.448;4.638;2023-07-13T13:33:44;7.40;;;2.80;;
17330;SDS011;8783;52.448;4.638;2023-07-13T13:38:40;7.88;;;2.65;;
17330;SDS011;8783;52.448;4.638;2023-07-13T13:41:08;7.45;;;2.45;;
17330;SDS011;8783;52.448;4.638;2023-07-13T13:43:35;9.70;;;2.55;;
17330;SDS011;8783;52.448;4.638;2023-07-13T13:46:01;7.35;;;2.72;;
17330;SDS011;8783;52.448;4.638;2023-07-13T13:48:31;16.48;;;3.08;;
17330;SDS011;8783;52.448;4.638;2023-07-13T13:50:58;8.77;;;2.88;;
17330;SDS011;8783;52.448;4.638;2023-07-13T13:53:26;9.88;;;2.75;;
17330;SDS011;8783;52.448;4.638;2023-07-13T13:55:53;11.75;;;2.72;;
17330;SDS011;8783;52.448;4.638;2023-07-13T13:58:19;5.57;;;2.47;;
17330;SDS011;8783;52.448;4.638;2023-07-13T14:00:45;8.23;;;3.00;;
17330;SDS011;8783;52.448;4.638;2023-07-13T14:03:16;7.68;;;2.55;;
17330;SDS011;8783;52.448;4.638;2023-07-13T14:05:45;9.98;;;2.72;;
17330;SDS011;8783;52.448;4.638;2023-07-13T14:08:15;9.32;;;2.53;;
17330;SDS011;8783;52.448;4.638;2023-07-13T14:10:43;8.13;;;2.70;;
17330;SDS011;8783;52.448;4.638;2023-07-13T14:13:17;9.65;;;2.92;;
17330;SDS011;8783;52.448;4.638;2023-07-13T14:15:46;8.77;;;2.20;;
17330;SDS011;8783;52.448;4.638;2023-07-13T14:18:13;10.32;;;2.80;;
17330;SDS011;8783;52.448;4.638;2023-07-13T14:20:43;6.68;;;2.50;;
17330;SDS011;8783;52.448;4.638;2023-07-13T14:23:09;9.68;;;2.30;;
17330;SDS011;8783;52.448;4.638;2023-07-13T14:25:38;8.90;;;2.60;;
17330;SDS011;8783;52.448;4.638;2023-07-13T14:28:10;8.35;;;3.08;;
17330;SDS011;8783;52.448;4.638;2023-07-13T14:30:48;7.85;;;2.92;;
17330;SDS011;8783;52.448;4.638;2023-07-13T14:33:14;8.13;;;2.65;;
17330;SDS011;8783;52.448;4.638;2023-07-13T14:35:40;12.20;;;2.60;;
17330;SDS011;8783;52.448;4.638;2023-07-13T14:38:08;10.00;;;2.78;;
17330;SDS011;8783;52.448;4.638;2023-07-13T14:40:37;8.63;;;2.72;;
17330;SDS011;8783;52.448;4.638;2023-07-13T14:43:03;11.55;;;2.88;;
17330;SDS011;8783;52.448;4.638;2023-07-13T14:45:29;10.95;;;2.60;;
17330;SDS011;8783;52.448;4.638;2023-07-13T14:47:56;7.43;;;2.70;;
17330;SDS011;8783;52.448;4.638;2023-07-13T14:50:27;6.13;;;2.35;;
17330;SDS011;8783;52.448;4.638;2023-07-13T14:52:57;8.52;;;2.70;;
17330;SDS011;8783;52.448;4.638;2023-07-13T14:55:23;6.53;;;2.30;;
17330;SDS011;8783;52.448;4.638;2023-07-13T14:57:51;6.07;;;2.30;;
17330;SDS011;8783;52.448;4.638;2023-07-13T15:00:18;7.13;;;2.58;;
17330;SDS011;8783;52.448;4.638;2023-07-13T15:02:55;10.57;;;2.45;;
17330;SDS011;8783;52.448;4.638;2023-07-13T15:05:28;10.45;;;2.55;;
17330;SDS011;8783;52.448;4.638;2023-07-13T15:07:57;7.32;;;2.38;;
17330;SDS011;8783;52.448;4.638;2023-07-13T15:10:29;10.80;;;2.97;;
17330;SDS011;8783;52.448;4.638;2023-07-13T15:13:00;8.02;;;2.78;;
17330;SDS011;8783;52.448;4.638;2023-07-13T15:15:37;7.68;;;2.13;;
17330;SDS011;8783;52.448;4.638;2023-07-13T15:18:05;9.82;;;2.70;;
17330;SDS011;8783;52.448;4.638;2023-07-13T15:20:34;10.02;;;2.28;;
17330;SDS011;8783;52.448;4.638;2023-07-13T15:23:00;7.80;;;2.65;;
17330;SDS011;8783;52.448;4.638;2023-07-13T15:25:27;7.28;;;2.38;;
17330;SDS011;8783;52.448;4.638;2023-07-13T15:27:55;8.63;;;2.58;;
17330;SDS011;8783;52.448;4.638;2023-07-13T15:30:22;7.28;;;2.47;;
17330;SDS011;8783;52.448;4.638;2023-07-13T15:32:52;8.40;;;2.38;;
17330;SDS011;8783;52.448;4.638;2023-07-13T15:35:19;9.57;;;2.97;;
17330;SDS011;8783;52.448;4.638;2023-07-13T15:37:47;10.35;;;2.20;;
17330;SDS011;8783;52.448;4.638;2023-07-13T15:40:15;8.93;;;2.30;;
17330;SDS011;8783;52.448;4.638;2023-07-13T15:42:41;6.03;;;2.30;;
17330;SDS011;8783;52.448;4.638;2023-07-13T15:45:15;8.52;;;2.30;;
17330;SDS011;8783;52.448;4.638;2023-07-13T15:47:43;8.27;;;2.25;;
17330;SDS011;8783;52.448;4.638;2023-07-13T15:50:17;6.78;;;2.40;;
17330;SDS011;8783;52.448;4.638;2023-07-13T15:52:47;5.15;;;2.22;;
17330;SDS011;8783;52.448;4.638;2023-07-13T15:55:15;14.63;;;2.63;;